Terminal Aerodrome Forecast
Issued by NWS Charleston, WV

Current Version | Previous Version | Graphics & Text | Print | Product List | Glossary On
Versions: 1 2 3 4 5 6 7 8 9 10 11 12 13 14 15 16 17 18 19 20 21 22 23
277
FTUS41 KRLX 201741
TAFPKB
TAF
KPKB 201741Z 2018/2118 00000KT P6SM SCT250
     FM210500 12003KT 5SM BR SCT200
     FM210800 15005KT 6SM BR SCT200
     FM211300 17006KT P6SM BKN200
     FM211700 20007KT P6SM BKN050=

USA.gov is the U.S. government's official web portal to all federal, state and local government web resources and services.